sensor_id;sensor_type;location;lat;lon;timestamp;temperature;humidity
21280;DHT22;11764;43.100;25.716;2022-08-23T00:00:27;21.60;99.90
21280;DHT22;11764;43.100;25.716;2022-08-23T00:02:52;21.50;99.90
21280;DHT22;11764;43.100;25.716;2022-08-23T00:05:18;21.50;99.90
21280;DHT22;11764;43.100;25.716;2022-08-23T00:07:44;21.60;99.90
21280;DHT22;11764;43.100;25.716;2022-08-23T00:10:12;21.80;99.90
21280;DHT22;11764;43.100;25.716;2022-08-23T00:12:38;22.10;99.90
21280;DHT22;11764;43.100;25.716;2022-08-23T00:15:04;22.30;99.90
21280;DHT22;11764;43.100;25.716;2022-08-23T00:17:30;22.30;99.90
21280;DHT22;11764;43.100;25.716;2022-08-23T00:19:55;22.40;99.90
21280;DHT22;11764;43.100;25.716;2022-08-23T00:22:21;22.40;99.90
21280;DHT22;11764;43.100;25.716;2022-08-23T00:24:47;22.50;99.90
21280;DHT22;11764;43.100;25.716;2022-08-23T00:27:14;22.40;99.90
21280;DHT22;11764;43.100;25.716;2022-08-23T00:29:42;22.30;99.90
21280;DHT22;11764;43.100;25.716;2022-08-23T00:32:08;22.20;99.90
21280;DHT22;11764;43.100;25.716;2022-08-23T00:34:34;22.20;99.90
21280;DHT22;11764;43.100;25.716;2022-08-23T00:37:01;22.30;99.90
21280;DHT22;11764;43.100;25.716;2022-08-23T00:39:27;22.30;99.90
21280;DHT22;11764;43.100;25.716;2022-08-23T00:41:55;22.30;99.90
21280;DHT22;11764;43.100;25.716;2022-08-23T00:44:23;22.30;99.90
21280;DHT22;11764;43.100;25.716;2022-08-23T00:47:09;22.20;99.90
21280;DHT22;11764;43.100;25.716;2022-08-23T00:50:00;22.10;99.90
21280;DHT22;11764;43.100;25.716;2022-08-23T00:52:32;22.10;99.90
21280;DHT22;11764;43.100;25.716;2022-08-23T00:54:59;22.00;99.90
21280;DHT22;11764;43.100;25.716;2022-08-23T00:57:24;21.90;99.90
21280;DHT22;11764;43.100;25.716;2022-08-23T00:59:51;21.90;99.90
21280;DHT22;11764;43.100;25.716;2022-08-23T01:02:17;21.90;99.90
21280;DHT22;11764;43.100;25.716;2022-08-23T01:04:44;21.80;99.90
21280;DHT22;11764;43.100;25.716;2022-08-23T01:07:19;21.90;99.90
21280;DHT22;11764;43.100;25.716;2022-08-23T01:09:46;22.00;99.90
21280;DHT22;11764;43.100;25.716;2022-08-23T01:12:20;22.00;99.90
21280;DHT22;11764;43.100;25.716;2022-08-23T01:14:50;22.10;99.90
21280;DHT22;11764;43.100;25.716;2022-08-23T01:17:25;22.10;99.90
21280;DHT22;11764;43.100;25.716;2022-08-23T01:19:54;22.00;99.90
21280;DHT22;11764;43.100;25.716;2022-08-23T01:24:47;22.00;99.90
21280;DHT22;11764;43.100;25.716;2022-08-23T01:27:13;22.10;99.90
21280;DHT22;11764;43.100;25.716;2022-08-23T01:29:39;22.10;99.90
21280;DHT22;11764;43.100;25.716;2022-08-23T01:32:06;22.10;99.90
21280;DHT22;11764;43.100;25.716;2022-08-23T01:34:32;22.10;99.90
21280;DHT22;11764;43.100;25.716;2022-08-23T01:36:58;22.10;99.90
21280;DHT22;11764;43.100;25.716;2022-08-23T01:39:23;22.00;99.90
21280;DHT22;11764;43.100;25.716;2022-08-23T01:41:49;21.90;99.90
21280;DHT22;11764;43.100;25.716;2022-08-23T01:44:15;21.80;99.90
21280;DHT22;11764;43.100;25.716;2022-08-23T01:46:42;21.70;99.90
21280;DHT22;11764;43.100;25.716;2022-08-23T01:49:08;21.70;99.90
21280;DHT22;11764;43.100;25.716;2022-08-23T01:51:34;21.70;99.90
21280;DHT22;11764;43.100;25.716;2022-08-23T01:53:59;21.60;99.90
21280;DHT22;11764;43.100;25.716;2022-08-23T01:56:25;21.60;99.90
21280;DHT22;11764;43.100;25.716;2022-08-23T01:58:51;21.70;99.90
21280;DHT22;11764;43.100;25.716;2022-08-23T02:01:16;21.70;99.90
21280;DHT22;11764;43.100;25.716;2022-08-23T02:03:43;21.60;99.90
21280;DHT22;11764;43.100;25.716;2022-08-23T02:06:10;21.60;99.90
21280;DHT22;11764;43.100;25.716;2022-08-23T02:08:35;21.40;99.90
21280;DHT22;11764;43.100;25.716;2022-08-23T02:11:20;21.40;99.90
21280;DHT22;11764;43.100;25.716;2022-08-23T02:13:46;21.30;99.90
21280;DHT22;11764;43.100;25.716;2022-08-23T02:16:12;21.30;99.90
21280;DHT22;11764;43.100;25.716;2022-08-23T02:18:38;21.20;99.90
21280;DHT22;11764;43.100;25.716;2022-08-23T02:21:04;21.10;99.90
21280;DHT22;11764;43.100;25.716;2022-08-23T02:23:29;21.10;99.90
21280;DHT22;11764;43.100;25.716;2022-08-23T02:25:55;21.20;99.90
21280;DHT22;11764;43.100;25.716;2022-08-23T02:28:21;21.20;99.90
21280;DHT22;11764;43.100;25.716;2022-08-23T02:30:48;21.20;99.90
21280;DHT22;11764;43.100;25.716;2022-08-23T02:33:14;21.20;99.90
21280;DHT22;11764;43.100;25.716;2022-08-23T02:35:40;21.20;99.90
21280;DHT22;11764;43.100;25.716;2022-08-23T02:38:07;21.30;99.90
21280;DHT22;11764;43.100;25.716;2022-08-23T02:40:33;21.30;99.90
21280;DHT22;11764;43.100;25.716;2022-08-23T02:42:59;21.20;99.90
21280;DHT22;11764;43.100;25.716;2022-08-23T02:45:26;21.20;99.90
21280;DHT22;11764;43.100;25.716;2022-08-23T02:47:51;21.20;99.90
21280;DHT22;11764;43.100;25.716;2022-08-23T02:50:17;21.00;99.90
21280;DHT22;11764;43.100;25.716;2022-08-23T02:52:43;21.00;99.90
21280;DHT22;11764;43.100;25.716;2022-08-23T02:55:09;20.90;99.90
21280;DHT22;11764;43.100;25.716;2022-08-23T02:57:34;20.80;99.90
21280;DHT22;11764;43.100;25.716;2022-08-23T03:00:01;20.70;99.90
21280;DHT22;11764;43.100;25.716;2022-08-23T03:02:26;20.70;99.90
21280;DHT22;11764;43.100;25.716;2022-08-23T03:04:52;20.80;99.90
21280;DHT22;11764;43.100;25.716;2022-08-23T03:07:17;20.60;99.90
21280;DHT22;11764;43.100;25.716;2022-08-23T03:09:43;20.60;99.90
21280;DHT22;11764;43.100;25.716;2022-08-23T03:12:09;20.60;99.90
21280;DHT22;11764;43.100;25.716;2022-08-23T03:14:35;20.70;99.90
21280;DHT22;11764;43.100;25.716;2022-08-23T03:17:02;20.70;99.90
21280;DHT22;11764;43.100;25.716;2022-08-23T03:19:28;20.50;99.90
21280;DHT22;11764;43.100;25.716;2022-08-23T03:21:53;20.40;99.90
21280;DHT22;11764;43.100;25.716;2022-08-23T03:24:19;20.40;99.90
21280;DHT22;11764;43.100;25.716;2022-08-23T03:26:44;20.50;99.90
21280;DHT22;11764;43.100;25.716;2022-08-23T03:29:10;20.50;99.90
21280;DHT22;11764;43.100;25.716;2022-08-23T03:31:36;20.50;99.90
21280;DHT22;11764;43.100;25.716;2022-08-23T03:34:02;20.50;99.90
21280;DHT22;11764;43.100;25.716;2022-08-23T03:36:27;20.50;99.90
21280;DHT22;11764;43.100;25.716;2022-08-23T03:38:53;20.40;99.90
21280;DHT22;11764;43.100;25.716;2022-08-23T03:41:18;20.40;99.90
21280;DHT22;11764;43.100;25.716;2022-08-23T03:43:44;20.50;99.90
21280;DHT22;11764;43.100;25.716;2022-08-23T03:46:10;20.60;99.90
21280;DHT22;11764;43.100;25.716;2022-08-23T03:48:48;20.60;99.90
21280;DHT22;11764;43.100;25.716;2022-08-23T03:51:14;20.60;99.90
21280;DHT22;11764;43.100;25.716;2022-08-23T03:53:40;20.70;99.90
21280;DHT22;11764;43.100;25.716;2022-08-23T03:56:06;20.70;99.90
21280;DHT22;11764;43.100;25.716;2022-08-23T03:58:31;20.70;99.90
21280;DHT22;11764;43.100;25.716;2022-08-23T04:00:57;20.70;99.90
21280;DHT22;11764;43.100;25.716;2022-08-23T04:03:22;20.80;99.90
21280;DHT22;11764;43.100;25.716;2022-08-23T04:05:48;20.80;99.90
21280;DHT22;11764;43.100;25.716;2022-08-23T04:08:13;20.90;99.90
21280;DHT22;11764;43.100;25.716;2022-08-23T04:10:39;21.00;99.90
21280;DHT22;11764;43.100;25.716;2022-08-23T04:13:06;21.20;99.90
21280;DHT22;11764;43.100;25.716;2022-08-23T04:15:31;21.30;99.90
21280;DHT22;11764;43.100;25.716;2022-08-23T04:17:57;21.50;99.90
21280;DHT22;11764;43.100;25.716;2022-08-23T04:20:23;21.60;99.90
21280;DHT22;11764;43.100;25.716;2022-08-23T04:22:52;21.70;99.90
21280;DHT22;11764;43.100;25.716;2022-08-23T04:25:19;21.90;99.90
21280;DHT22;11764;43.100;25.716;2022-08-23T04:27:44;22.00;99.90
21280;DHT22;11764;43.100;25.716;2022-08-23T04:30:10;22.10;99.90
21280;DHT22;11764;43.100;25.716;2022-08-23T04:32:36;22.20;99.90
21280;DHT22;11764;43.100;25.716;2022-08-23T04:35:01;22.30;99.90
21280;DHT22;11764;43.100;25.716;2022-08-23T04:37:27;22.30;99.90
21280;DHT22;11764;43.100;25.716;2022-08-23T04:39:52;22.20;99.90
21280;DHT22;11764;43.100;25.716;2022-08-23T04:42:37;22.20;99.90
21280;DHT22;11764;43.100;25.716;2022-08-23T04:45:02;22.40;99.90
21280;DHT22;11764;43.100;25.716;2022-08-23T04:47:28;22.50;99.90
21280;DHT22;11764;43.100;25.716;2022-08-23T04:49:53;22.80;99.90
21280;DHT22;11764;43.100;25.716;2022-08-23T04:52:19;23.00;99.90
21280;DHT22;11764;43.100;25.716;2022-08-23T04:54:45;23.10;99.90
21280;DHT22;11764;43.100;25.716;2022-08-23T04:57:11;23.30;99.90
21280;DHT22;11764;43.100;25.716;2022-08-23T04:59:36;23.40;99.90
21280;DHT22;11764;43.100;25.716;2022-08-23T05:02:02;23.50;99.90
21280;DHT22;11764;43.100;25.716;2022-08-23T05:04:27;23.70;99.90
21280;DHT22;11764;43.100;25.716;2022-08-23T05:06:53;23.80;99.90
21280;DHT22;11764;43.100;25.716;2022-08-23T05:09:19;23.90;99.90
21280;DHT22;11764;43.100;25.716;2022-08-23T05:11:44;23.90;99.90
21280;DHT22;11764;43.100;25.716;2022-08-23T05:14:10;23.90;99.90
21280;DHT22;11764;43.100;25.716;2022-08-23T05:16:35;24.00;99.90
21280;DHT22;11764;43.100;25.716;2022-08-23T05:19:01;24.10;99.90
21280;DHT22;11764;43.100;25.716;2022-08-23T05:21:27;24.10;99.90
21280;DHT22;11764;43.100;25.716;2022-08-23T05:23:52;24.30;99.90
21280;DHT22;11764;43.100;25.716;2022-08-23T05:26:18;24.30;99.90
21280;DHT22;11764;43.100;25.716;2022-08-23T05:28:45;24.30;99.90
21280;DHT22;11764;43.100;25.716;2022-08-23T05:31:13;24.40;99.90
21280;DHT22;11764;43.100;25.716;2022-08-23T05:33:39;24.70;99.90
21280;DHT22;11764;43.100;25.716;2022-08-23T05:36:06;24.80;99.90
21280;DHT22;11764;43.100;25.716;2022-08-23T05:38:32;24.80;99.90
21280;DHT22;11764;43.100;25.716;2022-08-23T05:40:58;24.70;99.90
21280;DHT22;11764;43.100;25.716;2022-08-23T05:43:26;24.80;99.90
21280;DHT22;11764;43.100;25.716;2022-08-23T05:46:03;24.90;99.90
21280;DHT22;11764;43.100;25.716;2022-08-23T05:48:29;24.90;99.90
21280;DHT22;11764;43.100;25.716;2022-08-23T05:50:56;25.10;99.90
21280;DHT22;11764;43.100;25.716;2022-08-23T05:53:22;25.10;99.90
21280;DHT22;11764;43.100;25.716;2022-08-23T05:55:48;25.00;99.90
21280;DHT22;11764;43.100;25.716;2022-08-23T05:58:13;25.20;99.90
21280;DHT22;11764;43.100;25.716;2022-08-23T06:00:39;25.20;99.90
21280;DHT22;11764;43.100;25.716;2022-08-23T06:03:04;25.30;99.90
21280;DHT22;11764;43.100;25.716;2022-08-23T06:05:30;25.20;99.90
21280;DHT22;11764;43.100;25.716;2022-08-23T06:07:57;25.30;99.90
21280;DHT22;11764;43.100;25.716;2022-08-23T06:10:23;25.40;99.90
21280;DHT22;11764;43.100;25.716;2022-08-23T06:12:48;25.50;99.90
21280;DHT22;11764;43.100;25.716;2022-08-23T06:15:14;25.50;99.90
21280;DHT22;11764;43.100;25.716;2022-08-23T06:17:39;25.70;99.90
21280;DHT22;11764;43.100;25.716;2022-08-23T06:20:05;25.80;99.90
21280;DHT22;11764;43.100;25.716;2022-08-23T06:22:32;25.90;99.90
21280;DHT22;11764;43.100;25.716;2022-08-23T06:24:57;25.80;99.90
21280;DHT22;11764;43.100;25.716;2022-08-23T06:27:23;25.90;99.90
21280;DHT22;11764;43.100;25.716;2022-08-23T06:29:48;25.80;99.90
21280;DHT22;11764;43.100;25.716;2022-08-23T06:32:14;25.90;99.90
21280;DHT22;11764;43.100;25.716;2022-08-23T06:34:40;25.80;99.90
21280;DHT22;11764;43.100;25.716;2022-08-23T06:37:09;25.80;99.90
21280;DHT22;11764;43.100;25.716;2022-08-23T06:39:35;25.70;99.90
21280;DHT22;11764;43.100;25.716;2022-08-23T06:42:02;25.70;99.90
21280;DHT22;11764;43.100;25.716;2022-08-23T06:44:29;25.80;99.90
21280;DHT22;11764;43.100;25.716;2022-08-23T06:46:54;25.90;99.90
21280;DHT22;11764;43.100;25.716;2022-08-23T06:49:22;25.90;99.90
21280;DHT22;11764;43.100;25.716;2022-08-23T06:51:49;26.00;99.90
21280;DHT22;11764;43.100;25.716;2022-08-23T06:54:15;26.20;99.90
21280;DHT22;11764;43.100;25.716;2022-08-23T06:56:42;26.40;99.90
21280;DHT22;11764;43.100;25.716;2022-08-23T06:59:07;26.50;99.90
21280;DHT22;11764;43.100;25.716;2022-08-23T07:04:15;26.80;99.90
21280;DHT22;11764;43.100;25.716;2022-08-23T07:06:41;26.70;99.90
21280;DHT22;11764;43.100;25.716;2022-08-23T07:09:07;26.80;99.90
21280;DHT22;11764;43.100;25.716;2022-08-23T07:11:33;26.90;99.90
21280;DHT22;11764;43.100;25.716;2022-08-23T07:13:59;27.00;99.90
21280;DHT22;11764;43.100;25.716;2022-08-23T07:16:30;27.10;99.90
21280;DHT22;11764;43.100;25.716;2022-08-23T07:18:56;27.10;99.90
21280;DHT22;11764;43.100;25.716;2022-08-23T07:21:21;27.00;99.90
21280;DHT22;11764;43.100;25.716;2022-08-23T07:23:47;27.10;99.90
21280;DHT22;11764;43.100;25.716;2022-08-23T07:26:13;27.10;99.90
21280;DHT22;11764;43.100;25.716;2022-08-23T07:28:39;27.20;99.90
21280;DHT22;11764;43.100;25.716;2022-08-23T07:31:07;27.10;99.90
21280;DHT22;11764;43.100;25.716;2022-08-23T07:33:35;26.90;99.90
21280;DHT22;11764;43.100;25.716;2022-08-23T07:36:01;27.20;99.90
21280;DHT22;11764;43.100;25.716;2022-08-23T07:38:26;27.40;99.90
21280;DHT22;11764;43.100;25.716;2022-08-23T07:40:52;27.40;99.90
21280;DHT22;11764;43.100;25.716;2022-08-23T07:43:17;27.50;99.90
21280;DHT22;11764;43.100;25.716;2022-08-23T07:45:43;27.70;99.90
21280;DHT22;11764;43.100;25.716;2022-08-23T07:48:08;27.70;99.90
21280;DHT22;11764;43.100;25.716;2022-08-23T07:50:34;27.70;99.90
21280;DHT22;11764;43.100;25.716;2022-08-23T07:53:00;27.80;99.90
21280;DHT22;11764;43.100;25.716;2022-08-23T07:55:27;28.00;99.90
21280;DHT22;11764;43.100;25.716;2022-08-23T07:57:53;28.20;99.90
21280;DHT22;11764;43.100;25.716;2022-08-23T08:00:18;28.20;99.90
21280;DHT22;11764;43.100;25.716;2022-08-23T08:02:45;28.20;99.90
21280;DHT22;11764;43.100;25.716;2022-08-23T08:05:10;28.50;99.90
21280;DHT22;11764;43.100;25.716;2022-08-23T08:07:36;28.80;99.90
21280;DHT22;11764;43.100;25.716;2022-08-23T08:10:02;29.00;99.90
21280;DHT22;11764;43.100;25.716;2022-08-23T08:12:28;29.00;99.90
21280;DHT22;11764;43.100;25.716;2022-08-23T08:14:53;28.70;99.90
21280;DHT22;11764;43.100;25.716;2022-08-23T08:17:19;28.80;99.90
21280;DHT22;11764;43.100;25.716;2022-08-23T08:19:45;29.20;99.90
21280;DHT22;11764;43.100;25.716;2022-08-23T08:22:10;29.00;99.90
21280;DHT22;11764;43.100;25.716;2022-08-23T08:24:37;28.90;99.90
21280;DHT22;11764;43.100;25.716;2022-08-23T08:27:03;28.80;99.90
21280;DHT22;11764;43.100;25.716;2022-08-23T08:29:28;28.50;99.90
21280;DHT22;11764;43.100;25.716;2022-08-23T08:31:54;28.00;99.90
21280;DHT22;11764;43.100;25.716;2022-08-23T08:34:21;27.90;99.90
21280;DHT22;11764;43.100;25.716;2022-08-23T08:36:47;27.30;99.90
21280;DHT22;11764;43.100;25.716;2022-08-23T08:39:14;27.20;99.90
21280;DHT22;11764;43.100;25.716;2022-08-23T08:41:56;27.60;99.90
21280;DHT22;11764;43.100;25.716;2022-08-23T08:44:40;28.10;99.90
21280;DHT22;11764;43.100;25.716;2022-08-23T08:47:14;28.00;99.90
21280;DHT22;11764;43.100;25.716;2022-08-23T08:54:48;28.80;99.90
21280;DHT22;11764;43.100;25.716;2022-08-23T08:57:15;28.90;99.90
21280;DHT22;11764;43.100;25.716;2022-08-23T08:59:57;28.70;99.90
21280;DHT22;11764;43.100;25.716;2022-08-23T09:02:25;29.10;99.90
21280;DHT22;11764;43.100;25.716;2022-08-23T09:04:53;29.30;99.90
21280;DHT22;11764;43.100;25.716;2022-08-23T09:07:27;27.70;99.90
21280;DHT22;11764;43.100;25.716;2022-08-23T09:12:25;28.20;99.90
21280;DHT22;11764;43.100;25.716;2022-08-23T09:15:02;28.50;99.90
21280;DHT22;11764;43.100;25.716;2022-08-23T09:17:41;29.00;99.90
21280;DHT22;11764;43.100;25.716;2022-08-23T09:20:08;29.10;99.90
21280;DHT22;11764;43.100;25.716;2022-08-23T09:22:36;28.70;99.90
21280;DHT22;11764;43.100;25.716;2022-08-23T09:25:03;29.10;99.90
21280;DHT22;11764;43.100;25.716;2022-08-23T09:27:29;29.40;99.90
21280;DHT22;11764;43.100;25.716;2022-08-23T09:29:56;29.50;99.90
21280;DHT22;11764;43.100;25.716;2022-08-23T09:34:51;29.30;99.90
21280;DHT22;11764;43.100;25.716;2022-08-23T09:37:18;29.50;99.90
21280;DHT22;11764;43.100;25.716;2022-08-23T09:39:49;29.70;99.90
21280;DHT22;11764;43.100;25.716;2022-08-23T09:44:51;29.80;99.90
21280;DHT22;11764;43.100;25.716;2022-08-23T09:47:17;29.60;99.90
21280;DHT22;11764;43.100;25.716;2022-08-23T09:49:43;29.80;99.90
21280;DHT22;11764;43.100;25.716;2022-08-23T09:52:12;30.00;99.90
21280;DHT22;11764;43.100;25.716;2022-08-23T09:54:39;30.10;99.90
21280;DHT22;11764;43.100;25.716;2022-08-23T09:57:06;30.30;99.90
21280;DHT22;11764;43.100;25.716;2022-08-23T09:59:40;30.30;99.90
21280;DHT22;11764;43.100;25.716;2022-08-23T10:02:10;30.40;99.90
21280;DHT22;11764;43.100;25.716;2022-08-23T10:04:44;30.30;99.90
21280;DHT22;11764;43.100;25.716;2022-08-23T10:07:22;30.20;99.90
21280;DHT22;11764;43.100;25.716;2022-08-23T10:09:49;30.30;99.90
21280;DHT22;11764;43.100;25.716;2022-08-23T10:12:14;30.10;99.90
21280;DHT22;11764;43.100;25.716;2022-08-23T10:14:40;30.20;99.90
21280;DHT22;11764;43.100;25.716;2022-08-23T10:22:18;30.40;99.90
21280;DHT22;11764;43.100;25.716;2022-08-23T10:30:21;30.90;99.90
21280;DHT22;11764;43.100;25.716;2022-08-23T10:32:59;30.90;99.90
21280;DHT22;11764;43.100;25.716;2022-08-23T10:38:06;31.00;99.90
21280;DHT22;11764;43.100;25.716;2022-08-23T10:43:17;31.40;99.90
21280;DHT22;11764;43.100;25.716;2022-08-23T10:45:50;31.40;99.90
21280;DHT22;11764;43.100;25.716;2022-08-23T10:48:21;31.40;99.90
21280;DHT22;11764;43.100;25.716;2022-08-23T10:50:53;31.30;99.90
21280;DHT22;11764;43.100;25.716;2022-08-23T10:53:19;31.40;99.90
21280;DHT22;11764;43.100;25.716;2022-08-23T10:55:54;31.60;99.90
21280;DHT22;11764;43.100;25.716;2022-08-23T11:00:57;31.80;99.90
21280;DHT22;11764;43.100;25.716;2022-08-23T11:03:26;31.40;99.90
21280;DHT22;11764;43.100;25.716;2022-08-23T11:08:37;31.60;99.90
21280;DHT22;11764;43.100;25.716;2022-08-23T11:17:10;32.10;99.90
21280;DHT22;11764;43.100;25.716;2022-08-23T11:22:21;32.10;99.90
21280;DHT22;11764;43.100;25.716;2022-08-23T11:24:49;32.30;99.90
21280;DHT22;11764;43.100;25.716;2022-08-23T11:27:35;32.20;99.90
21280;DHT22;11764;43.100;25.716;2022-08-23T11:32:45;32.00;99.90
21280;DHT22;11764;43.100;25.716;2022-08-23T11:35:25;31.60;99.90
21280;DHT22;11764;43.100;25.716;2022-08-23T11:37:58;31.40;99.90
21280;DHT22;11764;43.100;25.716;2022-08-23T11:40:37;31.40;99.90
21280;DHT22;11764;43.100;25.716;2022-08-23T11:43:06;31.30;99.90
21280;DHT22;11764;43.100;25.716;2022-08-23T11:48:05;31.20;99.90
21280;DHT22;11764;43.100;25.716;2022-08-23T11:53:24;31.20;99.90
21280;DHT22;11764;43.100;25.716;2022-08-23T11:58:42;31.40;99.90
21280;DHT22;11764;43.100;25.716;2022-08-23T12:01:15;31.70;99.90
21280;DHT22;11764;43.100;25.716;2022-08-23T12:08:46;32.10;99.90
21280;DHT22;11764;43.100;25.716;2022-08-23T12:11:13;32.00;99.90
21280;DHT22;11764;43.100;25.716;2022-08-23T12:13:49;31.80;99.90
21280;DHT22;11764;43.100;25.716;2022-08-23T12:18:42;31.80;99.90
21280;DHT22;11764;43.100;25.716;2022-08-23T12:21:15;31.50;99.90
21280;DHT22;11764;43.100;25.716;2022-08-23T12:23:43;31.40;99.90
21280;DHT22;11764;43.100;25.716;2022-08-23T12:26:11;31.40;99.90
21280;DHT22;11764;43.100;25.716;2022-08-23T12:28:42;31.10;99.90
21280;DHT22;11764;43.100;25.716;2022-08-23T12:31:19;30.90;99.90
21280;DHT22;11764;43.100;25.716;2022-08-23T12:36:41;30.10;99.90
21280;DHT22;11764;43.100;25.716;2022-08-23T12:41:34;25.90;99.90
21280;DHT22;11764;43.100;25.716;2022-08-23T12:44:15;24.00;99.90
21280;DHT22;11764;43.100;25.716;2022-08-23T12:46:43;23.00;99.90
21280;DHT22;11764;43.100;25.716;2022-08-23T12:49:10;23.00;99.90
21280;DHT22;11764;43.100;25.716;2022-08-23T12:51:49;22.60;99.90
21280;DHT22;11764;43.100;25.716;2022-08-23T12:54:20;21.90;99.90
21280;DHT22;11764;43.100;25.716;2022-08-23T12:56:47;21.50;99.90
21280;DHT22;11764;43.100;25.716;2022-08-23T13:02:10;21.70;99.90
21280;DHT22;11764;43.100;25.716;2022-08-23T13:04:37;22.00;99.90
21280;DHT22;11764;43.100;25.716;2022-08-23T13:07:05;22.20;99.90
21280;DHT22;11764;43.100;25.716;2022-08-23T13:09:32;22.00;99.90
21280;DHT22;11764;43.100;25.716;2022-08-23T13:11:59;22.00;99.90
21280;DHT22;11764;43.100;25.716;2022-08-23T13:16:56;22.00;99.90
21280;DHT22;11764;43.100;25.716;2022-08-23T13:22:07;22.40;99.90
21280;DHT22;11764;43.100;25.716;2022-08-23T13:24:35;22.40;99.90
21280;DHT22;11764;43.100;25.716;2022-08-23T13:29:46;22.40;99.90
21280;DHT22;11764;43.100;25.716;2022-08-23T13:37:43;22.00;99.90
21280;DHT22;11764;43.100;25.716;2022-08-23T13:40:10;21.70;99.90
21280;DHT22;11764;43.100;25.716;2022-08-23T13:45:08;21.40;99.90
21280;DHT22;11764;43.100;25.716;2022-08-23T13:47:33;21.50;99.90
21280;DHT22;11764;43.100;25.716;2022-08-23T13:50:00;21.70;99.90
21280;DHT22;11764;43.100;25.716;2022-08-23T13:52:26;21.80;99.90
21280;DHT22;11764;43.100;25.716;2022-08-23T13:54:51;22.00;99.90
21280;DHT22;11764;43.100;25.716;2022-08-23T13:57:17;22.10;99.90
21280;DHT22;11764;43.100;25.716;2022-08-23T14:02:12;22.30;99.90
21280;DHT22;11764;43.100;25.716;2022-08-23T14:04:38;22.20;99.90
21280;DHT22;11764;43.100;25.716;2022-08-23T14:07:04;22.20;99.90
21280;DHT22;11764;43.100;25.716;2022-08-23T14:09:31;22.20;99.90
21280;DHT22;11764;43.100;25.716;2022-08-23T14:12:00;22.00;99.90
21280;DHT22;11764;43.100;25.716;2022-08-23T14:14:27;21.80;99.90
21280;DHT22;11764;43.100;25.716;2022-08-23T14:16:55;21.80;99.90
21280;DHT22;11764;43.100;25.716;2022-08-23T14:19:21;21.80;99.90
21280;DHT22;11764;43.100;25.716;2022-08-23T14:21:47;22.00;99.90
21280;DHT22;11764;43.100;25.716;2022-08-23T14:24:12;22.40;99.90
21280;DHT22;11764;43.100;25.716;2022-08-23T14:26:38;22.60;99.90
21280;DHT22;11764;43.100;25.716;2022-08-23T14:29:04;22.70;99.90
21280;DHT22;11764;43.100;25.716;2022-08-23T14:31:30;22.50;99.90
21280;DHT22;11764;43.100;25.716;2022-08-23T14:33:55;22.50;99.90
21280;DHT22;11764;43.100;25.716;2022-08-23T14:36:21;22.10;99.90
21280;DHT22;11764;43.100;25.716;2022-08-23T14:38:46;22.20;99.90
21280;DHT22;11764;43.100;25.716;2022-08-23T14:41:16;22.50;99.90
21280;DHT22;11764;43.100;25.716;2022-08-23T14:43:42;22.50;99.90
21280;DHT22;11764;43.100;25.716;2022-08-23T14:46:07;22.50;99.90
21280;DHT22;11764;43.100;25.716;2022-08-23T14:48:33;22.50;99.90
21280;DHT22;11764;43.100;25.716;2022-08-23T14:50:59;22.60;99.90
21280;DHT22;11764;43.100;25.716;2022-08-23T14:53:26;22.80;99.90
21280;DHT22;11764;43.100;25.716;2022-08-23T14:55:52;22.90;99.90
21280;DHT22;11764;43.100;25.716;2022-08-23T14:58:18;23.00;99.90
21280;DHT22;11764;43.100;25.716;2022-08-23T15:00:44;23.20;99.90
21280;DHT22;11764;43.100;25.716;2022-08-23T15:03:10;23.40;99.90
21280;DHT22;11764;43.100;25.716;2022-08-23T15:05:39;23.30;99.90
21280;DHT22;11764;43.100;25.716;2022-08-23T15:08:05;23.20;99.90
21280;DHT22;11764;43.100;25.716;2022-08-23T15:10:30;23.30;99.90
21280;DHT22;11764;43.100;25.716;2022-08-23T15:12:56;23.40;99.90
21280;DHT22;11764;43.100;25.716;2022-08-23T15:15:22;23.30;99.90
21280;DHT22;11764;43.100;25.716;2022-08-23T15:20:14;23.10;99.90
21280;DHT22;11764;43.100;25.716;2022-08-23T15:22:40;23.30;99.90
21280;DHT22;11764;43.100;25.716;2022-08-23T15:25:06;23.30;99.90
21280;DHT22;11764;43.100;25.716;2022-08-23T15:27:31;23.40;99.90
21280;DHT22;11764;43.100;25.716;2022-08-23T15:29:57;23.70;99.90
21280;DHT22;11764;43.100;25.716;2022-08-23T15:32:23;23.80;99.90
21280;DHT22;11764;43.100;25.716;2022-08-23T15:34:48;23.70;99.90
21280;DHT22;11764;43.100;25.716;2022-08-23T15:37:14;23.60;99.90
21280;DHT22;11764;43.100;25.716;2022-08-23T15:39:42;23.30;99.90
21280;DHT22;11764;43.100;25.716;2022-08-23T15:42:08;23.10;99.90
21280;DHT22;11764;43.100;25.716;2022-08-23T15:44:33;23.00;99.90
21280;DHT22;11764;43.100;25.716;2022-08-23T15:46:59;23.00;99.90
21280;DHT22;11764;43.100;25.716;2022-08-23T15:49:25;23.10;99.90
21280;DHT22;11764;43.100;25.716;2022-08-23T15:51:52;23.20;99.90
21280;DHT22;11764;43.100;25.716;2022-08-23T15:54:17;23.20;99.90
21280;DHT22;11764;43.100;25.716;2022-08-23T15:56:44;23.10;99.90
21280;DHT22;11764;43.100;25.716;2022-08-23T15:59:11;22.90;99.90
21280;DHT22;11764;43.100;25.716;2022-08-23T16:01:38;22.60;99.90
21280;DHT22;11764;43.100;25.716;2022-08-23T16:04:03;22.60;99.90
21280;DHT22;11764;43.100;25.716;2022-08-23T16:06:29;22.60;99.90
21280;DHT22;11764;43.100;25.716;2022-08-23T16:08:55;22.60;99.90
21280;DHT22;11764;43.100;25.716;2022-08-23T16:11:21;22.70;99.90
21280;DHT22;11764;43.100;25.716;2022-08-23T16:13:47;22.70;99.90
21280;DHT22;11764;43.100;25.716;2022-08-23T16:16:32;22.70;99.90
21280;DHT22;11764;43.100;25.716;2022-08-23T16:18:59;22.80;99.90
21280;DHT22;11764;43.100;25.716;2022-08-23T16:21:25;22.70;99.90
21280;DHT22;11764;43.100;25.716;2022-08-23T16:23:52;22.70;99.90
21280;DHT22;11764;43.100;25.716;2022-08-23T16:26:18;22.70;99.90
21280;DHT22;11764;43.100;25.716;2022-08-23T16:28:46;22.80;99.90
21280;DHT22;11764;43.100;25.716;2022-08-23T16:31:12;22.30;99.90
21280;DHT22;11764;43.100;25.716;2022-08-23T16:33:38;22.10;99.90
21280;DHT22;11764;43.100;25.716;2022-08-23T16:36:03;22.10;99.90
21280;DHT22;11764;43.100;25.716;2022-08-23T16:38:29;22.00;99.90
21280;DHT22;11764;43.100;25.716;2022-08-23T16:40:55;22.00;99.90
21280;DHT22;11764;43.100;25.716;2022-08-23T16:43:21;21.90;99.90
21280;DHT22;11764;43.100;25.716;2022-08-23T16:45:46;21.90;99.90
21280;DHT22;11764;43.100;25.716;2022-08-23T16:48:12;22.00;99.90
21280;DHT22;11764;43.100;25.716;2022-08-23T16:50:37;22.20;99.90